This is the latest recevied weather packets stored in our database for station/object CQ0XSM-11. If no packets are shown the sender has not sent any weather packets the latest 10 day(s).
| Time | Temp. | Humidity | Pressure | Rain* | Wind** | Luminosity | Snow |
|---|---|---|---|---|---|---|---|
| 1778091258 | 15° C | 47% | 990.6 hPa | 0 mm | - | - | - |
| 1778090949 | 15° C | 47% | 990.6 hPa | 0 mm | - | - | - |
| 1778090666 | 15° C | 46% | 990.6 hPa | 0 mm | - | - | - |
| 1778090347 | 15.56° C | 46% | 990.6 hPa | 0 mm | - | - | - |
| 1778090045 | 15.56° C | 46% | 990.5 hPa | 0 mm | - | - | - |
| 1778089755 | 15.56° C | 45% | 990.7 hPa | 0 mm | - | - | - |
| 1778089449 | 16.11° C | 43% | 990.7 hPa | 0 mm | - | - | - |
| 1778089136 | 16.11° C | 43% | 990.7 hPa | 0 mm | - | - | - |
| 1778088850 | 16.11° C | 43% | 990.7 hPa | 0 mm | - | - | - |
| 1778088523 | 16.67° C | 42% | 990.7 hPa | 0 mm | - | - | - |
| 1778088217 | 16.67° C | 42% | 990.6 hPa | 0 mm | - | - | - |
| 1778087956 | 17.22° C | 42% | 990.7 hPa | 0 mm | - | - | - |
| 1778087621 | 17.22° C | 42% | 990.8 hPa | 0 mm | - | - | - |
| 1778087035 | 16.67° C | 44% | 990.7 hPa | 0 mm | - | - | - |
| 1778086700 | 16.67° C | 43% | 990.8 hPa | 0 mm | - | - | - |
| 1778086407 | 16.11° C | 44% | 990.8 hPa | 0 mm | - | - | - |
| 1778086130 | 16.11° C | 43% | 990.8 hPa | 0 mm | - | - | - |
| 1778085795 | 16.11° C | 42% | 990.8 hPa | 0 mm | - | - | - |
| 1778085490 | 16.67° C | 41% | 990.7 hPa | 0 mm | - | - | - |
| 1778085211 | 17.22° C | 40% | 990.8 hPa | 0 mm | - | - | - |
| 1778083987 | 17.22° C | 41% | 990.8 hPa | 0 mm | - | - | - |
| 1778083065 | 17.78° C | 37% | 990.8 hPa | 0 mm | - | - | - |
| 1778082770 | 17.78° C | 35% | 990.9 hPa | 0 mm | - | - | - |
| 1778082483 | 17.22° C | 37% | 990.9 hPa | 0 mm | - | - | - |
| 1778082160 | 17.22° C | 36% | 990.9 hPa | 0 mm | - | - | - |
* Rain since midnight (hover to see other rain measurements)
** Current wind speed in m/s (hover to see current wind gust speed)